sensor_id;sensor_type;location;lat;lon;timestamp;temperature;humidity
26336;DHT22;14047;50.936;4.654;2024-02-04T00:00:48;10.50;99.90
26336;DHT22;14047;50.936;4.654;2024-02-04T00:03:14;10.50;99.90
26336;DHT22;14047;50.936;4.654;2024-02-04T00:05:40;10.50;99.90
26336;DHT22;14047;50.936;4.654;2024-02-04T00:08:06;10.50;99.90
26336;DHT22;14047;50.936;4.654;2024-02-04T00:10:32;10.40;99.90
26336;DHT22;14047;50.936;4.654;2024-02-04T00:12:58;10.50;99.90
26336;DHT22;14047;50.936;4.654;2024-02-04T00:15:25;10.50;99.90
26336;DHT22;14047;50.936;4.654;2024-02-04T00:17:51;10.50;99.90
26336;DHT22;14047;50.936;4.654;2024-02-04T00:20:17;10.50;99.90
26336;DHT22;14047;50.936;4.654;2024-02-04T00:22:43;10.50;99.90
26336;DHT22;14047;50.936;4.654;2024-02-04T00:25:09;10.50;99.90
26336;DHT22;14047;50.936;4.654;2024-02-04T00:27:37;10.50;99.90
26336;DHT22;14047;50.936;4.654;2024-02-04T00:30:03;10.50;99.90
26336;DHT22;14047;50.936;4.654;2024-02-04T00:32:30;10.40;99.90
26336;DHT22;14047;50.936;4.654;2024-02-04T00:34:56;10.50;99.90
26336;DHT22;14047;50.936;4.654;2024-02-04T00:37:21;10.50;99.90
26336;DHT22;14047;50.936;4.654;2024-02-04T00:39:47;10.50;99.90
26336;DHT22;14047;50.936;4.654;2024-02-04T00:42:14;10.50;99.90
26336;DHT22;14047;50.936;4.654;2024-02-04T00:44:40;10.50;99.90
26336;DHT22;14047;50.936;4.654;2024-02-04T00:47:05;10.50;99.90
26336;DHT22;14047;50.936;4.654;2024-02-04T00:49:31;10.50;99.90
26336;DHT22;14047;50.936;4.654;2024-02-04T00:51:58;10.50;99.90
26336;DHT22;14047;50.936;4.654;2024-02-04T00:54:24;10.50;99.90
26336;DHT22;14047;50.936;4.654;2024-02-04T00:56:50;10.50;99.90
26336;DHT22;14047;50.936;4.654;2024-02-04T00:59:16;10.40;99.90
26336;DHT22;14047;50.936;4.654;2024-02-04T01:01:42;10.50;99.90
26336;DHT22;14047;50.936;4.654;2024-02-04T01:04:08;10.50;99.90
26336;DHT22;14047;50.936;4.654;2024-02-04T01:06:34;10.50;99.90
26336;DHT22;14047;50.936;4.654;2024-02-04T01:09:00;10.50;99.90
26336;DHT22;14047;50.936;4.654;2024-02-04T01:11:26;10.50;99.90
26336;DHT22;14047;50.936;4.654;2024-02-04T01:13:52;10.60;99.90
26336;DHT22;14047;50.936;4.654;2024-02-04T01:16:18;10.50;99.90
26336;DHT22;14047;50.936;4.654;2024-02-04T01:18:44;10.50;99.90
26336;DHT22;14047;50.936;4.654;2024-02-04T01:21:10;10.50;99.90
26336;DHT22;14047;50.936;4.654;2024-02-04T01:23:36;10.50;99.90
26336;DHT22;14047;50.936;4.654;2024-02-04T01:26:02;10.60;99.90
26336;DHT22;14047;50.936;4.654;2024-02-04T01:28:28;10.60;99.90
26336;DHT22;14047;50.936;4.654;2024-02-04T01:30:53;10.60;99.90
26336;DHT22;14047;50.936;4.654;2024-02-04T01:33:19;10.60;99.90
26336;DHT22;14047;50.936;4.654;2024-02-04T01:35:45;10.60;99.90
26336;DHT22;14047;50.936;4.654;2024-02-04T01:38:11;10.60;99.90
26336;DHT22;14047;50.936;4.654;2024-02-04T01:40:37;10.60;99.90
26336;DHT22;14047;50.936;4.654;2024-02-04T01:43:03;10.60;99.90
26336;DHT22;14047;50.936;4.654;2024-02-04T01:45:29;10.60;99.90
26336;DHT22;14047;50.936;4.654;2024-02-04T01:47:55;10.60;99.90
26336;DHT22;14047;50.936;4.654;2024-02-04T01:50:22;10.60;99.90
26336;DHT22;14047;50.936;4.654;2024-02-04T01:52:49;10.60;99.90
26336;DHT22;14047;50.936;4.654;2024-02-04T01:55:16;10.50;99.90
26336;DHT22;14047;50.936;4.654;2024-02-04T01:57:42;10.60;99.90
26336;DHT22;14047;50.936;4.654;2024-02-04T02:00:08;10.60;99.90
26336;DHT22;14047;50.936;4.654;2024-02-04T02:02:39;10.60;99.90
26336;DHT22;14047;50.936;4.654;2024-02-04T02:05:06;10.60;99.90
26336;DHT22;14047;50.936;4.654;2024-02-04T02:07:33;10.60;99.90
26336;DHT22;14047;50.936;4.654;2024-02-04T02:09:59;10.70;99.90
26336;DHT22;14047;50.936;4.654;2024-02-04T02:12:28;10.70;99.90
26336;DHT22;14047;50.936;4.654;2024-02-04T02:15:11;10.70;99.90
26336;DHT22;14047;50.936;4.654;2024-02-04T02:18:01;10.80;99.90
26336;DHT22;14047;50.936;4.654;2024-02-04T02:21:02;10.70;99.90
26336;DHT22;14047;50.936;4.654;2024-02-04T02:23:36;10.80;99.90
26336;DHT22;14047;50.936;4.654;2024-02-04T02:26:06;10.80;99.90
26336;DHT22;14047;50.936;4.654;2024-02-04T02:28:32;10.80;99.90
26336;DHT22;14047;50.936;4.654;2024-02-04T02:30:58;10.80;99.90
26336;DHT22;14047;50.936;4.654;2024-02-04T02:33:24;10.80;99.90
26336;DHT22;14047;50.936;4.654;2024-02-04T02:35:55;10.80;99.90
26336;DHT22;14047;50.936;4.654;2024-02-04T02:38:32;10.80;99.90
26336;DHT22;14047;50.936;4.654;2024-02-04T02:41:03;10.80;99.90
26336;DHT22;14047;50.936;4.654;2024-02-04T02:43:30;10.90;99.90
26336;DHT22;14047;50.936;4.654;2024-02-04T02:45:57;10.90;99.90
26336;DHT22;14047;50.936;4.654;2024-02-04T02:48:24;10.90;99.90
26336;DHT22;14047;50.936;4.654;2024-02-04T02:50:50;10.90;99.90
26336;DHT22;14047;50.936;4.654;2024-02-04T02:53:16;10.90;99.90
26336;DHT22;14047;50.936;4.654;2024-02-04T02:55:45;10.90;99.90
26336;DHT22;14047;50.936;4.654;2024-02-04T02:58:13;10.90;99.90
26336;DHT22;14047;50.936;4.654;2024-02-04T03:00:40;10.90;99.90
26336;DHT22;14047;50.936;4.654;2024-02-04T03:03:06;10.90;99.90
26336;DHT22;14047;50.936;4.654;2024-02-04T03:05:32;10.90;99.90
26336;DHT22;14047;50.936;4.654;2024-02-04T03:07:58;11.00;99.90
26336;DHT22;14047;50.936;4.654;2024-02-04T03:10:24;10.90;99.90
26336;DHT22;14047;50.936;4.654;2024-02-04T03:12:50;11.00;99.90
26336;DHT22;14047;50.936;4.654;2024-02-04T03:15:16;11.00;99.90
26336;DHT22;14047;50.936;4.654;2024-02-04T03:17:43;11.00;99.90
26336;DHT22;14047;50.936;4.654;2024-02-04T03:20:10;11.00;99.90
26336;DHT22;14047;50.936;4.654;2024-02-04T03:22:36;11.00;99.90
26336;DHT22;14047;50.936;4.654;2024-02-04T03:25:02;11.00;99.90
26336;DHT22;14047;50.936;4.654;2024-02-04T03:27:29;10.90;99.90
26336;DHT22;14047;50.936;4.654;2024-02-04T03:29:54;11.00;99.90
26336;DHT22;14047;50.936;4.654;2024-02-04T03:32:21;11.00;99.90
26336;DHT22;14047;50.936;4.654;2024-02-04T03:34:47;11.00;99.90
26336;DHT22;14047;50.936;4.654;2024-02-04T03:37:13;11.00;99.90
26336;DHT22;14047;50.936;4.654;2024-02-04T03:39:39;11.00;99.90
26336;DHT22;14047;50.936;4.654;2024-02-04T03:42:05;11.00;99.90
26336;DHT22;14047;50.936;4.654;2024-02-04T03:44:31;10.90;99.90
26336;DHT22;14047;50.936;4.654;2024-02-04T03:46:58;10.90;99.90
26336;DHT22;14047;50.936;4.654;2024-02-04T03:49:24;10.90;99.90
26336;DHT22;14047;50.936;4.654;2024-02-04T03:51:50;10.90;99.90
26336;DHT22;14047;50.936;4.654;2024-02-04T03:54:16;10.90;99.90
26336;DHT22;14047;50.936;4.654;2024-02-04T03:56:46;10.90;99.90
26336;DHT22;14047;50.936;4.654;2024-02-04T03:59:12;10.80;99.90
26336;DHT22;14047;50.936;4.654;2024-02-04T04:01:38;10.90;99.90
26336;DHT22;14047;50.936;4.654;2024-02-04T04:04:04;10.80;99.90
26336;DHT22;14047;50.936;4.654;2024-02-04T04:06:30;10.80;99.90
26336;DHT22;14047;50.936;4.654;2024-02-04T04:08:56;10.80;99.90
26336;DHT22;14047;50.936;4.654;2024-02-04T04:11:24;10.80;99.90
26336;DHT22;14047;50.936;4.654;2024-02-04T04:13:50;10.90;99.90
26336;DHT22;14047;50.936;4.654;2024-02-04T04:16:20;10.80;99.90
26336;DHT22;14047;50.936;4.654;2024-02-04T04:18:46;10.70;99.90
26336;DHT22;14047;50.936;4.654;2024-02-04T04:21:12;10.80;99.90
26336;DHT22;14047;50.936;4.654;2024-02-04T04:23:38;10.80;99.90
26336;DHT22;14047;50.936;4.654;2024-02-04T04:26:04;10.80;99.90
26336;DHT22;14047;50.936;4.654;2024-02-04T04:28:31;10.80;99.90
26336;DHT22;14047;50.936;4.654;2024-02-04T04:30:57;10.70;99.90
26336;DHT22;14047;50.936;4.654;2024-02-04T04:33:23;10.80;99.90
26336;DHT22;14047;50.936;4.654;2024-02-04T04:35:49;10.80;99.90
26336;DHT22;14047;50.936;4.654;2024-02-04T04:38:15;10.80;99.90
26336;DHT22;14047;50.936;4.654;2024-02-04T04:40:41;10.80;99.90
26336;DHT22;14047;50.936;4.654;2024-02-04T04:43:07;10.80;99.90
26336;DHT22;14047;50.936;4.654;2024-02-04T04:45:33;10.80;99.90
26336;DHT22;14047;50.936;4.654;2024-02-04T04:47:59;10.80;99.90
26336;DHT22;14047;50.936;4.654;2024-02-04T04:50:25;10.80;99.90
26336;DHT22;14047;50.936;4.654;2024-02-04T04:52:51;10.80;99.90
26336;DHT22;14047;50.936;4.654;2024-02-04T04:55:18;10.80;99.90
26336;DHT22;14047;50.936;4.654;2024-02-04T04:57:44;10.90;99.90
26336;DHT22;14047;50.936;4.654;2024-02-04T05:00:10;10.90;99.90
26336;DHT22;14047;50.936;4.654;2024-02-04T05:02:37;10.80;99.90
26336;DHT22;14047;50.936;4.654;2024-02-04T05:05:04;10.90;99.90
26336;DHT22;14047;50.936;4.654;2024-02-04T05:07:30;10.80;99.90
26336;DHT22;14047;50.936;4.654;2024-02-04T05:09:56;10.70;99.90
26336;DHT22;14047;50.936;4.654;2024-02-04T05:12:21;10.70;99.90
26336;DHT22;14047;50.936;4.654;2024-02-04T05:14:47;10.70;99.90
26336;DHT22;14047;50.936;4.654;2024-02-04T05:17:13;10.70;99.90
26336;DHT22;14047;50.936;4.654;2024-02-04T05:19:41;10.80;99.90
26336;DHT22;14047;50.936;4.654;2024-02-04T05:22:08;10.80;99.90
26336;DHT22;14047;50.936;4.654;2024-02-04T05:24:34;10.80;99.90
26336;DHT22;14047;50.936;4.654;2024-02-04T05:27:00;10.80;99.90
26336;DHT22;14047;50.936;4.654;2024-02-04T05:29:26;10.80;99.90
26336;DHT22;14047;50.936;4.654;2024-02-04T05:31:52;10.80;99.90
26336;DHT22;14047;50.936;4.654;2024-02-04T05:34:18;10.80;99.90
26336;DHT22;14047;50.936;4.654;2024-02-04T05:36:44;10.80;99.90
26336;DHT22;14047;50.936;4.654;2024-02-04T05:39:19;10.70;99.90
26336;DHT22;14047;50.936;4.654;2024-02-04T05:41:45;10.70;99.90
26336;DHT22;14047;50.936;4.654;2024-02-04T05:44:11;10.70;99.90
26336;DHT22;14047;50.936;4.654;2024-02-04T05:46:37;10.70;99.90
26336;DHT22;14047;50.936;4.654;2024-02-04T05:49:04;10.60;99.90
26336;DHT22;14047;50.936;4.654;2024-02-04T05:51:32;10.70;99.90
26336;DHT22;14047;50.936;4.654;2024-02-04T05:53:59;10.70;99.90
26336;DHT22;14047;50.936;4.654;2024-02-04T05:56:25;10.70;99.90
26336;DHT22;14047;50.936;4.654;2024-02-04T05:58:51;10.70;99.90
26336;DHT22;14047;50.936;4.654;2024-02-04T06:01:17;10.70;99.90
26336;DHT22;14047;50.936;4.654;2024-02-04T06:03:43;10.70;99.90
26336;DHT22;14047;50.936;4.654;2024-02-04T06:06:14;10.70;99.90
26336;DHT22;14047;50.936;4.654;2024-02-04T06:08:40;10.80;99.90
26336;DHT22;14047;50.936;4.654;2024-02-04T06:11:10;10.80;99.90
26336;DHT22;14047;50.936;4.654;2024-02-04T06:13:36;10.80;99.90
26336;DHT22;14047;50.936;4.654;2024-02-04T06:16:02;10.80;99.90
26336;DHT22;14047;50.936;4.654;2024-02-04T06:18:28;10.80;99.90
26336;DHT22;14047;50.936;4.654;2024-02-04T06:20:54;10.80;99.90
26336;DHT22;14047;50.936;4.654;2024-02-04T06:23:20;10.80;99.90
26336;DHT22;14047;50.936;4.654;2024-02-04T06:25:46;10.80;99.90
26336;DHT22;14047;50.936;4.654;2024-02-04T06:28:12;10.80;99.90
26336;DHT22;14047;50.936;4.654;2024-02-04T06:30:38;10.80;99.90
26336;DHT22;14047;50.936;4.654;2024-02-04T06:33:04;10.80;99.90
26336;DHT22;14047;50.936;4.654;2024-02-04T06:35:30;10.80;99.90
26336;DHT22;14047;50.936;4.654;2024-02-04T06:37:56;10.90;99.90
26336;DHT22;14047;50.936;4.654;2024-02-04T06:40:21;10.90;99.90
26336;DHT22;14047;50.936;4.654;2024-02-04T06:42:47;10.80;99.90
26336;DHT22;14047;50.936;4.654;2024-02-04T06:45:13;10.80;99.90
26336;DHT22;14047;50.936;4.654;2024-02-04T06:47:42;10.80;99.90
26336;DHT22;14047;50.936;4.654;2024-02-04T06:50:08;10.80;99.90
26336;DHT22;14047;50.936;4.654;2024-02-04T06:52:46;10.80;99.90
26336;DHT22;14047;50.936;4.654;2024-02-04T06:55:12;10.70;99.90
26336;DHT22;14047;50.936;4.654;2024-02-04T06:57:38;10.70;99.90
26336;DHT22;14047;50.936;4.654;2024-02-04T07:00:06;10.70;99.90
26336;DHT22;14047;50.936;4.654;2024-02-04T07:02:34;10.70;99.90
26336;DHT22;14047;50.936;4.654;2024-02-04T07:05:00;10.70;99.90
26336;DHT22;14047;50.936;4.654;2024-02-04T07:07:26;10.80;99.90
26336;DHT22;14047;50.936;4.654;2024-02-04T07:09:52;10.70;99.90
26336;DHT22;14047;50.936;4.654;2024-02-04T07:12:18;10.70;99.90
26336;DHT22;14047;50.936;4.654;2024-02-04T07:14:44;10.70;99.90
26336;DHT22;14047;50.936;4.654;2024-02-04T07:17:10;10.70;99.90
26336;DHT22;14047;50.936;4.654;2024-02-04T07:19:39;10.70;99.90
26336;DHT22;14047;50.936;4.654;2024-02-04T07:22:05;10.80;99.90
26336;DHT22;14047;50.936;4.654;2024-02-04T07:24:31;10.70;99.90
26336;DHT22;14047;50.936;4.654;2024-02-04T07:26:57;10.70;99.90
26336;DHT22;14047;50.936;4.654;2024-02-04T07:29:23;10.80;99.90
26336;DHT22;14047;50.936;4.654;2024-02-04T07:31:49;10.80;99.90
26336;DHT22;14047;50.936;4.654;2024-02-04T07:34:15;10.80;99.90
26336;DHT22;14047;50.936;4.654;2024-02-04T07:36:41;10.80;99.90
26336;DHT22;14047;50.936;4.654;2024-02-04T07:39:07;10.80;99.90
26336;DHT22;14047;50.936;4.654;2024-02-04T07:41:33;10.80;99.90
26336;DHT22;14047;50.936;4.654;2024-02-04T07:43:59;10.80;99.90
26336;DHT22;14047;50.936;4.654;2024-02-04T07:46:25;10.80;99.90
26336;DHT22;14047;50.936;4.654;2024-02-04T07:48:50;10.80;99.90
26336;DHT22;14047;50.936;4.654;2024-02-04T07:51:16;10.80;99.90
26336;DHT22;14047;50.936;4.654;2024-02-04T07:53:43;10.80;99.90
26336;DHT22;14047;50.936;4.654;2024-02-04T07:56:09;10.90;99.90
26336;DHT22;14047;50.936;4.654;2024-02-04T07:58:36;10.90;99.90
26336;DHT22;14047;50.936;4.654;2024-02-04T08:01:02;10.90;99.90
26336;DHT22;14047;50.936;4.654;2024-02-04T08:03:28;10.90;99.90
26336;DHT22;14047;50.936;4.654;2024-02-04T08:05:55;10.90;99.90
26336;DHT22;14047;50.936;4.654;2024-02-04T08:08:20;10.90;99.90
26336;DHT22;14047;50.936;4.654;2024-02-04T08:10:47;10.90;99.90
26336;DHT22;14047;50.936;4.654;2024-02-04T08:13:12;10.90;99.90
26336;DHT22;14047;50.936;4.654;2024-02-04T08:15:38;10.90;99.90
26336;DHT22;14047;50.936;4.654;2024-02-04T08:18:05;11.00;99.90
26336;DHT22;14047;50.936;4.654;2024-02-04T08:20:31;11.00;99.90
26336;DHT22;14047;50.936;4.654;2024-02-04T08:22:58;11.00;99.90
26336;DHT22;14047;50.936;4.654;2024-02-04T08:25:24;11.10;99.90
26336;DHT22;14047;50.936;4.654;2024-02-04T08:27:50;11.10;99.90
26336;DHT22;14047;50.936;4.654;2024-02-04T08:30:16;11.10;99.90
26336;DHT22;14047;50.936;4.654;2024-02-04T08:32:45;11.10;99.90
26336;DHT22;14047;50.936;4.654;2024-02-04T08:35:11;11.10;99.90
26336;DHT22;14047;50.936;4.654;2024-02-04T08:37:37;11.10;99.90
26336;DHT22;14047;50.936;4.654;2024-02-04T08:40:05;11.10;99.90
26336;DHT22;14047;50.936;4.654;2024-02-04T08:42:32;11.10;99.90
26336;DHT22;14047;50.936;4.654;2024-02-04T08:44:58;11.20;99.90
26336;DHT22;14047;50.936;4.654;2024-02-04T08:47:23;11.20;99.90
26336;DHT22;14047;50.936;4.654;2024-02-04T08:49:49;11.20;99.90
26336;DHT22;14047;50.936;4.654;2024-02-04T08:52:15;11.30;99.90
26336;DHT22;14047;50.936;4.654;2024-02-04T08:54:41;11.30;99.90
26336;DHT22;14047;50.936;4.654;2024-02-04T08:57:07;11.20;99.90
26336;DHT22;14047;50.936;4.654;2024-02-04T08:59:34;11.30;99.90
26336;DHT22;14047;50.936;4.654;2024-02-04T09:01:59;11.30;99.90
26336;DHT22;14047;50.936;4.654;2024-02-04T09:04:25;11.30;99.90
26336;DHT22;14047;50.936;4.654;2024-02-04T09:06:51;11.40;99.90
26336;DHT22;14047;50.936;4.654;2024-02-04T09:09:17;11.40;99.90
26336;DHT22;14047;50.936;4.654;2024-02-04T09:11:43;11.40;99.90
26336;DHT22;14047;50.936;4.654;2024-02-04T09:14:09;11.40;99.90
26336;DHT22;14047;50.936;4.654;2024-02-04T09:16:37;11.40;99.90
26336;DHT22;14047;50.936;4.654;2024-02-04T09:19:05;11.40;99.90
26336;DHT22;14047;50.936;4.654;2024-02-04T09:21:31;11.40;99.90
26336;DHT22;14047;50.936;4.654;2024-02-04T09:23:57;11.40;99.90
26336;DHT22;14047;50.936;4.654;2024-02-04T09:26:23;11.40;99.90
26336;DHT22;14047;50.936;4.654;2024-02-04T09:28:49;11.50;99.90
26336;DHT22;14047;50.936;4.654;2024-02-04T09:31:15;11.50;99.90
26336;DHT22;14047;50.936;4.654;2024-02-04T09:33:42;11.50;99.90
26336;DHT22;14047;50.936;4.654;2024-02-04T09:36:08;11.50;99.90
26336;DHT22;14047;50.936;4.654;2024-02-04T09:38:34;11.50;99.90
26336;DHT22;14047;50.936;4.654;2024-02-04T09:41:01;11.50;99.90
26336;DHT22;14047;50.936;4.654;2024-02-04T09:43:33;11.40;99.90
26336;DHT22;14047;50.936;4.654;2024-02-04T09:46:01;11.40;99.90
26336;DHT22;14047;50.936;4.654;2024-02-04T09:48:30;11.50;99.90
26336;DHT22;14047;50.936;4.654;2024-02-04T09:50:57;11.40;99.90
26336;DHT22;14047;50.936;4.654;2024-02-04T09:53:33;11.40;99.90
26336;DHT22;14047;50.936;4.654;2024-02-04T09:56:02;11.40;99.90
26336;DHT22;14047;50.936;4.654;2024-02-04T09:58:28;11.40;99.90
26336;DHT22;14047;50.936;4.654;2024-02-04T10:00:55;11.40;99.90
26336;DHT22;14047;50.936;4.654;2024-02-04T10:03:22;11.40;99.90
26336;DHT22;14047;50.936;4.654;2024-02-04T10:05:48;11.50;99.90
26336;DHT22;14047;50.936;4.654;2024-02-04T10:08:14;11.40;99.90
26336;DHT22;14047;50.936;4.654;2024-02-04T10:10:40;11.40;99.90
26336;DHT22;14047;50.936;4.654;2024-02-04T10:13:10;11.40;99.90
26336;DHT22;14047;50.936;4.654;2024-02-04T10:15:37;11.40;99.90
26336;DHT22;14047;50.936;4.654;2024-02-04T10:18:04;11.40;99.90
26336;DHT22;14047;50.936;4.654;2024-02-04T10:20:31;11.50;99.90
26336;DHT22;14047;50.936;4.654;2024-02-04T10:22:57;11.60;99.90
26336;DHT22;14047;50.936;4.654;2024-02-04T10:25:23;11.60;99.90
26336;DHT22;14047;50.936;4.654;2024-02-04T10:27:49;11.60;99.90
26336;DHT22;14047;50.936;4.654;2024-02-04T10:30:15;11.50;99.90
26336;DHT22;14047;50.936;4.654;2024-02-04T10:32:44;11.60;99.90
26336;DHT22;14047;50.936;4.654;2024-02-04T10:35:11;11.60;99.90
26336;DHT22;14047;50.936;4.654;2024-02-04T10:37:37;11.70;99.90
26336;DHT22;14047;50.936;4.654;2024-02-04T10:40:04;11.80;99.90
26336;DHT22;14047;50.936;4.654;2024-02-04T10:42:31;11.80;99.90
26336;DHT22;14047;50.936;4.654;2024-02-04T10:44:58;11.80;99.90
26336;DHT22;14047;50.936;4.654;2024-02-04T10:47:31;11.90;99.90
26336;DHT22;14047;50.936;4.654;2024-02-04T10:49:58;11.90;99.90
26336;DHT22;14047;50.936;4.654;2024-02-04T10:52:28;11.90;99.90
26336;DHT22;14047;50.936;4.654;2024-02-04T10:54:54;11.90;99.90
26336;DHT22;14047;50.936;4.654;2024-02-04T10:57:21;11.90;99.90
26336;DHT22;14047;50.936;4.654;2024-02-04T10:59:48;12.00;99.90
26336;DHT22;14047;50.936;4.654;2024-02-04T11:02:15;12.00;99.90
26336;DHT22;14047;50.936;4.654;2024-02-04T11:04:43;12.00;99.90
26336;DHT22;14047;50.936;4.654;2024-02-04T11:07:12;12.00;99.90
26336;DHT22;14047;50.936;4.654;2024-02-04T11:09:39;12.00;99.90
26336;DHT22;14047;50.936;4.654;2024-02-04T11:12:11;12.00;99.90
26336;DHT22;14047;50.936;4.654;2024-02-04T11:14:40;12.00;99.90
26336;DHT22;14047;50.936;4.654;2024-02-04T11:22:10;12.00;99.90
26336;DHT22;14047;50.936;4.654;2024-02-04T11:27:39;12.00;99.90
26336;DHT22;14047;50.936;4.654;2024-02-04T11:30:06;11.90;99.90
26336;DHT22;14047;50.936;4.654;2024-02-04T11:32:35;11.90;99.90
26336;DHT22;14047;50.936;4.654;2024-02-04T11:35:02;11.90;99.90
26336;DHT22;14047;50.936;4.654;2024-02-04T11:37:28;11.90;99.90
26336;DHT22;14047;50.936;4.654;2024-02-04T11:39:57;11.90;99.90
26336;DHT22;14047;50.936;4.654;2024-02-04T11:42:23;11.90;99.90
26336;DHT22;14047;50.936;4.654;2024-02-04T11:44:50;11.80;99.90
26336;DHT22;14047;50.936;4.654;2024-02-04T11:47:26;11.80;99.90
26336;DHT22;14047;50.936;4.654;2024-02-04T11:49:58;11.90;99.90
26336;DHT22;14047;50.936;4.654;2024-02-04T11:52:28;11.90;99.90
26336;DHT22;14047;50.936;4.654;2024-02-04T11:54:54;11.90;99.90
26336;DHT22;14047;50.936;4.654;2024-02-04T11:57:20;11.90;99.90
26336;DHT22;14047;50.936;4.654;2024-02-04T11:59:47;11.80;99.90
26336;DHT22;14047;50.936;4.654;2024-02-04T12:02:16;11.90;99.90
26336;DHT22;14047;50.936;4.654;2024-02-04T12:04:47;11.90;99.90
26336;DHT22;14047;50.936;4.654;2024-02-04T12:07:14;11.90;99.90
26336;DHT22;14047;50.936;4.654;2024-02-04T12:09:41;12.00;99.90
26336;DHT22;14047;50.936;4.654;2024-02-04T12:12:07;11.90;99.90
26336;DHT22;14047;50.936;4.654;2024-02-04T12:14:39;11.90;99.90
26336;DHT22;14047;50.936;4.654;2024-02-04T12:17:10;11.90;99.90
26336;DHT22;14047;50.936;4.654;2024-02-04T12:19:39;11.90;99.90
26336;DHT22;14047;50.936;4.654;2024-02-04T12:22:05;11.90;99.90
26336;DHT22;14047;50.936;4.654;2024-02-04T12:24:38;12.00;99.90
26336;DHT22;14047;50.936;4.654;2024-02-04T12:27:05;11.90;99.90
26336;DHT22;14047;50.936;4.654;2024-02-04T12:29:31;11.90;99.90
26336;DHT22;14047;50.936;4.654;2024-02-04T12:32:02;11.80;99.90
26336;DHT22;14047;50.936;4.654;2024-02-04T12:34:31;11.80;99.90
26336;DHT22;14047;50.936;4.654;2024-02-04T12:37:00;11.80;99.90
26336;DHT22;14047;50.936;4.654;2024-02-04T12:39:27;11.80;99.90
26336;DHT22;14047;50.936;4.654;2024-02-04T12:41:53;11.80;99.90
26336;DHT22;14047;50.936;4.654;2024-02-04T12:44:20;11.70;99.90
26336;DHT22;14047;50.936;4.654;2024-02-04T12:46:50;11.70;99.90
26336;DHT22;14047;50.936;4.654;2024-02-04T12:49:20;11.70;99.90
26336;DHT22;14047;50.936;4.654;2024-02-04T12:51:50;11.70;99.90
26336;DHT22;14047;50.936;4.654;2024-02-04T12:54:18;11.70;99.90
26336;DHT22;14047;50.936;4.654;2024-02-04T12:56:54;11.70;99.90
26336;DHT22;14047;50.936;4.654;2024-02-04T12:59:38;11.70;99.90
26336;DHT22;14047;50.936;4.654;2024-02-04T13:02:08;11.70;99.90
26336;DHT22;14047;50.936;4.654;2024-02-04T13:04:40;11.80;99.90
26336;DHT22;14047;50.936;4.654;2024-02-04T13:07:12;11.90;99.90
26336;DHT22;14047;50.936;4.654;2024-02-04T13:09:40;11.90;99.90
26336;DHT22;14047;50.936;4.654;2024-02-04T13:12:07;12.00;99.90
26336;DHT22;14047;50.936;4.654;2024-02-04T13:14:38;12.00;99.90
26336;DHT22;14047;50.936;4.654;2024-02-04T13:17:05;12.00;99.90
26336;DHT22;14047;50.936;4.654;2024-02-04T13:19:34;12.00;99.90
26336;DHT22;14047;50.936;4.654;2024-02-04T13:22:00;12.00;99.90
26336;DHT22;14047;50.936;4.654;2024-02-04T13:24:27;12.00;99.90
26336;DHT22;14047;50.936;4.654;2024-02-04T13:26:53;12.00;99.90
26336;DHT22;14047;50.936;4.654;2024-02-04T13:29:19;12.10;99.90
26336;DHT22;14047;50.936;4.654;2024-02-04T13:31:44;12.10;99.90
26336;DHT22;14047;50.936;4.654;2024-02-04T13:34:10;12.10;99.90
26336;DHT22;14047;50.936;4.654;2024-02-04T13:36:36;12.10;99.90
26336;DHT22;14047;50.936;4.654;2024-02-04T13:39:02;12.10;99.90
26336;DHT22;14047;50.936;4.654;2024-02-04T13:41:30;12.00;99.90
26336;DHT22;14047;50.936;4.654;2024-02-04T13:43:56;12.00;99.90
26336;DHT22;14047;50.936;4.654;2024-02-04T13:46:22;12.00;99.90
26336;DHT22;14047;50.936;4.654;2024-02-04T13:48:48;12.00;99.90
26336;DHT22;14047;50.936;4.654;2024-02-04T13:51:14;12.00;99.90
26336;DHT22;14047;50.936;4.654;2024-02-04T13:53:40;12.00;99.90
26336;DHT22;14047;50.936;4.654;2024-02-04T13:56:06;12.00;99.90
26336;DHT22;14047;50.936;4.654;2024-02-04T13:58:32;12.00;99.90
26336;DHT22;14047;50.936;4.654;2024-02-04T14:00:58;12.00;99.90
26336;DHT22;14047;50.936;4.654;2024-02-04T14:03:25;12.00;99.90
26336;DHT22;14047;50.936;4.654;2024-02-04T14:05:51;12.00;99.90
26336;DHT22;14047;50.936;4.654;2024-02-04T14:08:17;12.10;99.90
26336;DHT22;14047;50.936;4.654;2024-02-04T14:10:43;12.10;99.90
26336;DHT22;14047;50.936;4.654;2024-02-04T14:13:09;12.00;99.90
26336;DHT22;14047;50.936;4.654;2024-02-04T14:15:37;12.00;99.90
26336;DHT22;14047;50.936;4.654;2024-02-04T14:18:03;11.90;99.90
26336;DHT22;14047;50.936;4.654;2024-02-04T14:20:29;11.90;99.90
26336;DHT22;14047;50.936;4.654;2024-02-04T14:22:55;11.80;99.90
26336;DHT22;14047;50.936;4.654;2024-02-04T14:25:24;11.80;99.90
26336;DHT22;14047;50.936;4.654;2024-02-04T14:27:56;11.80;99.90
26336;DHT22;14047;50.936;4.654;2024-02-04T14:30:23;11.90;99.90
26336;DHT22;14047;50.936;4.654;2024-02-04T14:32:50;11.90;99.90
26336;DHT22;14047;50.936;4.654;2024-02-04T14:35:19;11.80;99.90
26336;DHT22;14047;50.936;4.654;2024-02-04T14:37:45;11.70;99.90
26336;DHT22;14047;50.936;4.654;2024-02-04T14:40:11;11.70;99.90
26336;DHT22;14047;50.936;4.654;2024-02-04T14:42:37;11.70;99.90
26336;DHT22;14047;50.936;4.654;2024-02-04T14:45:03;11.70;99.90
26336;DHT22;14047;50.936;4.654;2024-02-04T14:47:31;11.80;99.90
26336;DHT22;14047;50.936;4.654;2024-02-04T14:49:57;11.80;99.90
26336;DHT22;14047;50.936;4.654;2024-02-04T14:52:23;11.80;99.90
26336;DHT22;14047;50.936;4.654;2024-02-04T14:54:49;11.80;99.90
26336;DHT22;14047;50.936;4.654;2024-02-04T14:57:15;11.80;99.90
26336;DHT22;14047;50.936;4.654;2024-02-04T14:59:42;11.80;99.90
26336;DHT22;14047;50.936;4.654;2024-02-04T15:02:08;11.80;99.90
26336;DHT22;14047;50.936;4.654;2024-02-04T15:04:34;11.70;99.90
26336;DHT22;14047;50.936;4.654;2024-02-04T15:07:01;11.70;99.90
26336;DHT22;14047;50.936;4.654;2024-02-04T15:09:33;11.70;99.90
26336;DHT22;14047;50.936;4.654;2024-02-04T15:12:00;11.70;99.90
26336;DHT22;14047;50.936;4.654;2024-02-04T15:14:27;11.70;99.90
26336;DHT22;14047;50.936;4.654;2024-02-04T15:16:53;11.80;99.90
26336;DHT22;14047;50.936;4.654;2024-02-04T15:19:26;11.70;99.90
26336;DHT22;14047;50.936;4.654;2024-02-04T15:21:52;11.70;99.90
26336;DHT22;14047;50.936;4.654;2024-02-04T15:24:18;11.70;99.90
26336;DHT22;14047;50.936;4.654;2024-02-04T15:26:49;11.70;99.90
26336;DHT22;14047;50.936;4.654;2024-02-04T15:29:19;11.80;99.90
26336;DHT22;14047;50.936;4.654;2024-02-04T15:31:47;11.70;99.90
26336;DHT22;14047;50.936;4.654;2024-02-04T15:34:15;11.70;99.90
26336;DHT22;14047;50.936;4.654;2024-02-04T15:36:41;11.70;99.90